Terminal Aerodrome Forecast
Issued by NWS

Home | Current Version | Previous Version | Text Only | Print | Product List | Glossary On
Versions: 1 2 3 4 5 6 7 8 9 10 11 12 13 14 15 16 17
000
FTUS44 KOUN 292320
TAFCSM
TAF
KCSM 292320Z 3000/3024 34010KT P6SM SCT050 BKN090
      TEMPO 3001/3005 4SM -TSRA BR BKN030CB
     FM300500 14010KT P6SM SCT025 BKN250
      TEMPO 3011/3015 OVC025
     FM301700 17013G20KT P6SM SCT040 BKN250=

USA.gov is the U.S. government's official web portal to all federal, state and local government web resources and services.